createdAt,value
2018-04-18T00:02:16.981Z,12.88
2018-04-18T00:04:46.376Z,12.50
2018-04-18T00:07:15.623Z,11.50
2018-04-18T00:09:44.309Z,12.98
2018-04-18T00:12:12.680Z,12.18
2018-04-18T00:14:41.064Z,12.07
2018-04-18T00:17:09.476Z,12.93
2018-04-18T00:19:38.897Z,12.90
2018-04-18T00:22:08.247Z,12.98
2018-04-18T00:24:50.945Z,13.40
2018-04-18T00:27:19.359Z,13.48
2018-04-18T00:29:48.232Z,13.32
2018-04-18T00:32:17.107Z,13.98
2018-04-18T00:34:45.951Z,11.20
2018-04-18T00:37:17.719Z,14.55
2018-04-18T00:39:52.836Z,12.32
2018-04-18T00:42:23.669Z,12.57
2018-04-18T00:44:53.662Z,12.13
2018-04-18T00:47:22.797Z,12.48
2018-04-18T00:49:52.452Z,13.57
2018-04-18T00:52:21.408Z,13.10
2018-04-18T00:54:52.294Z,13.75
2018-04-18T00:57:21.479Z,12.80
2018-04-18T00:59:50.383Z,12.55
2018-04-18T01:02:20.831Z,13.13
2018-04-18T01:04:50.170Z,13.40
2018-04-18T01:07:20.145Z,13.07
2018-04-18T01:09:55.277Z,13.48
2018-04-18T01:12:24.026Z,12.05
2018-04-18T01:14:52.613Z,12.30
2018-04-18T01:17:20.982Z,12.93
2018-04-18T01:19:49.381Z,13.60
2018-04-18T01:22:17.774Z,12.80
2018-04-18T01:24:46.140Z,12.95
2018-04-18T01:27:14.712Z,12.57
2018-04-18T01:29:46.071Z,12.23
2018-04-18T01:32:14.464Z,14.32
2018-04-18T01:34:42.869Z,13.02
2018-04-18T01:37:11.243Z,12.85
2018-04-18T01:39:39.640Z,13.98
2018-04-18T01:42:08.784Z,12.50
2018-04-18T01:44:37.569Z,11.32
2018-04-18T01:47:05.941Z,12.45
2018-04-18T01:49:34.315Z,11.65
2018-04-18T01:52:02.708Z,9.70
2018-04-18T01:54:31.080Z,11.73
2018-04-18T01:56:59.655Z,11.70
2018-04-18T01:59:28.022Z,10.15
2018-04-18T02:01:56.383Z,12.05
2018-04-18T02:04:25.561Z,10.45
2018-04-18T02:06:54.755Z,9.63
2018-04-18T02:09:23.166Z,10.82
2018-04-18T02:11:51.533Z,12.57
2018-04-18T02:14:20.665Z,11.68
2018-04-18T02:16:49.060Z,12.70
2018-04-18T02:19:17.441Z,12.13
2018-04-18T02:21:46.815Z,12.32
2018-04-18T02:24:15.188Z,13.05
2018-04-18T02:26:43.556Z,11.52
2018-04-18T02:29:11.952Z,11.68
2018-04-18T02:31:40.346Z,10.10
2018-04-18T02:34:08.872Z,9.75
2018-04-18T02:36:38.020Z,11.80
2018-04-18T02:39:06.389Z,10.23
2018-04-18T02:41:34.795Z,10.63
2018-04-18T02:44:03.173Z,12.85
2018-04-18T02:46:31.833Z,12.05
2018-04-18T02:49:00.204Z,12.68
2018-04-18T02:51:28.585Z,11.73
2018-04-18T02:53:56.985Z,12.68
2018-04-18T02:56:25.380Z,12.75
2018-04-18T02:58:53.788Z,12.15
2018-04-18T03:01:22.928Z,13.05
2018-04-18T03:03:51.297Z,12.02
2018-04-18T03:06:19.684Z,13.43
2018-04-18T03:08:48.049Z,13.25
2018-04-18T03:11:16.454Z,11.35
2018-04-18T03:13:44.821Z,12.32
2018-04-18T03:16:13.184Z,13.98
2018-04-18T03:18:41.569Z,11.40
2018-04-18T03:21:09.941Z,11.07
2018-04-18T03:23:38.360Z,11.30
2018-04-18T03:26:06.758Z,12.35
2018-04-18T03:28:35.889Z,11.12
2018-04-18T03:31:04.276Z,9.40
2018-04-18T03:33:32.647Z,8.70
2018-04-18T03:36:01.237Z,10.82
2018-04-18T03:38:29.611Z,10.52
2018-04-18T03:40:57.976Z,10.30
2018-04-18T03:43:26.366Z,13.30
2018-04-18T03:45:54.773Z,11.20
2018-04-18T03:48:23.339Z,11.95
2018-04-18T03:50:51.705Z,12.23
2018-04-18T03:53:20.077Z,11.95
2018-04-18T03:55:48.534Z,11.95
2018-04-18T03:58:17.664Z,12.70
2018-04-18T04:00:46.345Z,11.88
2018-04-18T04:03:14.720Z,13.50
2018-04-18T04:05:43.283Z,15.27
2018-04-18T04:08:12.530Z,38.03
2018-04-18T04:10:40.893Z,19.60
2018-04-18T04:13:09.313Z,15.60
2018-04-18T04:15:37.686Z,16.33
2018-04-18T04:18:24.041Z,13.77
2018-04-18T04:21:10.183Z,13.65
2018-04-18T04:23:56.847Z,13.50
2018-04-18T04:26:25.219Z,13.65
2018-04-18T04:28:53.596Z,12.15
2018-04-18T04:31:22.021Z,11.63
2018-04-18T04:33:50.393Z,13.45
2018-04-18T04:36:18.816Z,12.93
2018-04-18T04:38:47.183Z,12.70
2018-04-18T04:41:16.317Z,11.55
2018-04-18T04:43:44.709Z,12.48
2018-04-18T04:46:13.080Z,14.13
2018-04-18T04:48:41.652Z,15.60
2018-04-18T04:51:10.021Z,12.82
2018-04-18T04:53:38.595Z,15.93
2018-04-18T04:56:06.977Z,16.17
2018-04-18T04:58:35.353Z,16.42
2018-04-18T05:01:04.169Z,16.12
2018-04-18T05:03:32.532Z,16.90
2018-04-18T05:06:00.906Z,13.45
2018-04-18T05:08:29.293Z,13.60
2018-04-18T05:10:57.665Z,13.93
2018-04-18T05:13:26.257Z,12.75
2018-04-18T05:15:54.620Z,15.45
2018-04-18T05:18:22.992Z,14.90
2018-04-18T05:20:51.374Z,14.30
2018-04-18T05:23:19.736Z,15.10
2018-04-18T05:25:49.168Z,14.30
2018-04-18T05:28:17.530Z,14.23
2018-04-18T05:30:46.042Z,15.50
2018-04-18T05:33:15.752Z,15.45
2018-04-18T05:35:44.285Z,15.15
2018-04-18T05:38:12.868Z,13.52
2018-04-18T05:40:42.009Z,14.20
2018-04-18T05:43:10.389Z,13.80
2018-04-18T05:45:38.792Z,14.60
2018-04-18T05:48:07.171Z,14.68
2018-04-18T05:50:35.577Z,17.58
2018-04-18T05:53:04.723Z,16.83
2018-04-18T05:55:33.099Z,16.00
2018-04-18T05:58:01.507Z,15.48
2018-04-18T06:00:29.896Z,16.80
2018-04-18T06:02:58.407Z,16.45
2018-04-18T06:05:26.788Z,15.90
2018-04-18T06:07:55.171Z,16.30
2018-04-18T06:10:23.626Z,16.85
2018-04-18T06:12:52.781Z,17.37
2018-04-18T06:15:21.457Z,16.48
2018-04-18T06:17:49.827Z,17.20
2018-04-18T06:20:18.208Z,17.83
2018-04-18T06:22:46.600Z,16.37
2018-04-18T06:25:14.994Z,17.35
2018-04-18T06:27:43.752Z,17.55
2018-04-18T06:30:12.129Z,17.60
2018-04-18T06:32:40.509Z,17.83
2018-04-18T06:35:08.912Z,17.40
2018-04-18T06:37:37.285Z,16.40
2018-04-18T06:40:06.129Z,16.37
2018-04-18T06:42:34.461Z,15.52
2018-04-18T06:45:02.845Z,16.42
2018-04-18T06:47:32.084Z,17.75
2018-04-18T06:50:00.462Z,16.15
2018-04-18T06:52:28.883Z,15.90
2018-04-18T06:54:57.256Z,15.18
2018-04-18T06:57:25.634Z,15.57
2018-04-18T06:59:54.028Z,13.70
2018-04-18T07:02:22.408Z,15.73
2018-04-18T07:04:50.835Z,12.93
2018-04-18T07:07:19.220Z,12.35
2018-04-18T07:09:47.596Z,11.63
2018-04-18T07:12:15.997Z,12.02
2018-04-18T07:14:44.393Z,11.52
2018-04-18T07:17:12.812Z,11.40
2018-04-18T07:19:41.958Z,12.48
2018-04-18T07:22:10.351Z,11.88
2018-04-18T07:24:38.770Z,11.95
2018-04-18T07:27:07.964Z,11.32
2018-04-18T07:29:37.408Z,11.07
2018-04-18T07:32:05.796Z,10.93
2018-04-18T07:34:34.184Z,9.35
2018-04-18T07:37:02.591Z,8.53
2018-04-18T07:39:31.746Z,8.32
2018-04-18T07:42:00.164Z,10.20
2018-04-18T07:44:28.553Z,8.67
2018-04-18T07:46:57.689Z,9.10
2018-04-18T07:49:26.085Z,10.17
2018-04-18T07:51:54.466Z,8.70
2018-04-18T07:54:23.350Z,9.90
2018-04-18T07:56:51.725Z,9.87
2018-04-18T07:59:20.122Z,13.23
2018-04-18T08:01:48.529Z,11.10
2018-04-18T08:04:17.681Z,11.43
2018-04-18T08:06:46.273Z,11.07
2018-04-18T08:09:14.653Z,10.90
2018-04-18T08:11:43.028Z,11.43
2018-04-18T08:14:11.432Z,11.27
2018-04-18T08:16:39.822Z,10.57
2018-04-18T08:19:09.373Z,17.37
2018-04-18T08:21:37.757Z,11.07
2018-04-18T08:24:06.252Z,13.30
2018-04-18T08:26:34.665Z,11.73
2018-04-18T08:29:03.812Z,11.20
2018-04-18T08:31:32.229Z,11.70
2018-04-18T08:34:00.632Z,9.73
2018-04-18T08:36:29.785Z,10.20
2018-04-18T08:38:58.198Z,11.33
2018-04-18T08:41:27.357Z,10.70
2018-04-18T08:43:55.925Z,10.33
2018-04-18T08:46:24.299Z,12.10
2018-04-18T08:48:52.714Z,11.93
2018-04-18T08:51:21.101Z,11.37
2018-04-18T08:53:49.476Z,9.40
2018-04-18T08:56:18.936Z,11.20
2018-04-18T08:58:47.296Z,11.60
2018-04-18T09:01:15.670Z,10.87
2018-04-18T09:03:44.953Z,12.00
2018-04-18T09:06:14.111Z,11.17
2018-04-18T09:08:42.684Z,10.50
2018-04-18T09:11:11.057Z,11.43
2018-04-18T09:13:39.437Z,11.00
2018-04-18T09:16:07.838Z,11.67
2018-04-18T09:18:36.225Z,10.47
2018-04-18T09:21:04.724Z,12.50
2018-04-18T09:23:33.101Z,14.50
2018-04-18T09:26:02.289Z,13.47
2018-04-18T09:28:31.488Z,12.30
2018-04-18T09:30:59.877Z,11.20
2018-04-18T09:33:29.329Z,9.13
2018-04-18T09:35:57.696Z,10.20
2018-04-18T09:38:26.061Z,7.07
2018-04-18T09:40:54.465Z,8.20
2018-04-18T09:43:22.831Z,6.20
2018-04-18T09:45:51.247Z,8.47
2018-04-18T09:48:19.626Z,7.97
2018-04-18T09:50:48.007Z,6.77
2018-04-18T09:53:16.404Z,5.40
2018-04-18T09:55:44.768Z,7.00
2018-04-18T09:58:13.197Z,7.67
2018-04-18T10:00:47.984Z,7.30
2018-04-18T10:03:16.369Z,6.97
2018-04-18T10:05:44.760Z,7.87
2018-04-18T10:08:13.919Z,8.50
2018-04-18T10:10:42.320Z,7.53
2018-04-18T10:13:10.856Z,7.17
2018-04-18T10:15:39.237Z,7.37
2018-04-18T10:18:07.612Z,7.10
2018-04-18T10:20:36.009Z,7.10
2018-04-18T10:23:04.402Z,6.53
2018-04-18T10:25:32.807Z,7.60
2018-04-18T10:28:01.963Z,8.23
2018-04-18T10:30:30.372Z,6.60
2018-04-18T10:32:59.545Z,7.60
2018-04-18T10:35:27.936Z,6.43
2018-04-18T10:37:56.351Z,7.13
2018-04-18T10:40:24.716Z,7.43
2018-04-18T10:42:53.884Z,7.87
2018-04-18T10:45:22.355Z,6.33
2018-04-18T10:47:50.929Z,6.30
2018-04-18T10:50:19.295Z,6.10
2018-04-18T10:52:47.669Z,4.77
2018-04-18T10:55:16.077Z,4.53
2018-04-18T10:57:44.461Z,4.47
2018-04-18T11:00:12.853Z,5.80
2018-04-18T11:02:41.230Z,5.13
2018-04-18T11:05:09.620Z,5.60
2018-04-18T11:07:38.025Z,4.80
2018-04-18T11:10:06.396Z,4.93
2018-04-18T11:12:35.560Z,4.47
2018-04-18T11:15:03.937Z,6.27
2018-04-18T11:17:32.337Z,5.43
2018-04-18T11:20:01.491Z,5.40
2018-04-18T11:22:29.918Z,5.07
2018-04-18T11:24:59.084Z,3.87
2018-04-18T11:27:27.477Z,3.90
2018-04-18T11:29:55.873Z,4.60
2018-04-18T11:32:25.020Z,3.67
2018-04-18T11:34:53.416Z,3.63
2018-04-18T11:37:21.788Z,4.33
2018-04-18T11:39:50.370Z,3.97
2018-04-18T11:42:18.738Z,4.10
2018-04-18T11:44:47.111Z,3.83
2018-04-18T11:47:15.594Z,6.43
2018-04-18T11:49:43.974Z,4.03
2018-04-18T11:52:12.373Z,4.70
2018-04-18T11:54:40.749Z,4.13
2018-04-18T11:57:09.349Z,4.60
2018-04-18T11:59:37.725Z,4.07
2018-04-18T12:02:06.096Z,3.83
2018-04-18T12:04:34.556Z,4.20
2018-04-18T12:07:02.927Z,4.27
2018-04-18T12:09:31.324Z,2.90
2018-04-18T12:11:59.716Z,3.23
2018-04-18T12:14:28.109Z,3.20
2018-04-18T12:16:57.304Z,4.90
2018-04-18T12:19:26.464Z,3.47
2018-04-18T12:21:54.867Z,4.27
2018-04-18T12:24:23.241Z,5.60
2018-04-18T12:26:51.897Z,4.50
2018-04-18T12:29:20.274Z,4.70
2018-04-18T12:31:49.529Z,4.90
2018-04-18T12:34:18.669Z,4.50
2018-04-18T12:36:47.245Z,4.87
2018-04-18T12:39:15.630Z,5.40
2018-04-18T12:41:43.997Z,5.23
2018-04-18T12:44:12.396Z,5.47
2018-04-18T12:46:40.772Z,6.10
2018-04-18T12:49:09.154Z,5.20
2018-04-18T12:51:37.526Z,5.27
2018-04-18T12:54:06.103Z,4.87
2018-04-18T12:56:34.480Z,5.93
2018-04-18T12:59:02.966Z,4.57
2018-04-18T13:01:31.365Z,4.03
2018-04-18T13:03:59.743Z,5.67
2018-04-18T13:06:28.163Z,5.97
2018-04-18T13:08:56.538Z,4.73
2018-04-18T13:11:26.069Z,4.73
2018-04-18T13:13:54.437Z,5.50
2018-04-18T13:16:22.803Z,6.40
2018-04-18T13:18:51.193Z,5.40
2018-04-18T13:21:19.565Z,6.93
2018-04-18T13:23:47.969Z,6.83
2018-04-18T13:26:16.346Z,7.63
2018-04-18T13:28:45.124Z,7.13
2018-04-18T13:31:13.497Z,5.97
2018-04-18T13:33:41.865Z,5.90
2018-04-18T13:36:10.267Z,8.33
2018-04-18T13:38:38.628Z,6.20
2018-04-18T13:41:07.031Z,5.60
2018-04-18T13:43:35.413Z,8.30
2018-04-18T13:46:03.834Z,5.90
2018-04-18T13:48:32.978Z,6.73
2018-04-18T13:51:01.367Z,5.53
2018-04-18T13:53:29.765Z,6.57
2018-04-18T13:55:58.932Z,6.77
2018-04-18T13:58:27.349Z,7.27
2018-04-18T14:00:55.724Z,6.30
2018-04-18T14:03:24.130Z,6.03
2018-04-18T14:05:53.266Z,7.50
2018-04-18T14:08:21.639Z,6.90
2018-04-18T14:10:50.040Z,9.17
2018-04-18T14:13:18.437Z,7.80
2018-04-18T14:15:46.837Z,9.20
2018-04-18T14:18:15.990Z,7.60
2018-04-18T14:20:44.398Z,8.43
2018-04-18T14:23:12.777Z,9.27
2018-04-18T14:25:41.157Z,8.60
2018-04-18T14:28:09.561Z,7.73
2018-04-18T14:30:37.940Z,8.30
2018-04-18T14:33:06.343Z,6.77
2018-04-18T14:35:34.718Z,8.73
2018-04-18T14:38:03.273Z,7.30
2018-04-18T14:40:32.410Z,6.30
2018-04-18T14:43:00.779Z,7.23
2018-04-18T14:45:29.211Z,6.77
2018-04-18T14:47:57.600Z,7.50
2018-04-18T14:50:26.770Z,10.33
2018-04-18T14:52:55.160Z,8.17
2018-04-18T14:55:23.582Z,9.20
2018-04-18T14:57:51.953Z,9.70
2018-04-18T15:00:20.565Z,9.83
2018-04-18T15:02:49.046Z,8.23
2018-04-18T15:05:17.447Z,9.57
2018-04-18T15:07:45.845Z,10.33
2018-04-18T15:10:14.213Z,9.93
2018-04-18T15:12:42.860Z,10.47
2018-04-18T15:15:11.244Z,10.10
2018-04-18T15:17:39.727Z,9.77
2018-04-18T15:20:08.120Z,9.13
2018-04-18T15:22:36.518Z,9.70
2018-04-18T15:25:04.932Z,10.20
2018-04-18T15:27:33.303Z,21.80
2018-04-18T15:30:01.721Z,11.23
2018-04-18T15:32:30.100Z,10.27
2018-04-18T15:34:58.533Z,9.23
2018-04-18T15:37:27.732Z,9.77
2018-04-18T15:39:56.894Z,10.40
2018-04-18T15:42:25.313Z,13.07
2018-04-18T15:44:54.459Z,8.57
2018-04-18T15:47:22.908Z,12.00
2018-04-18T15:49:51.292Z,11.20
2018-04-18T15:52:19.686Z,9.23
2018-04-18T15:54:48.083Z,7.90
2018-04-18T15:57:16.463Z,7.47
2018-04-18T15:59:44.870Z,8.63
2018-04-18T16:02:14.014Z,8.20
2018-04-18T16:04:42.428Z,8.40
2018-04-18T16:07:11.569Z,9.00
2018-04-18T16:09:39.974Z,7.60
2018-04-18T16:12:08.417Z,6.90
2018-04-18T16:14:36.820Z,8.03
2018-04-18T16:17:05.234Z,8.10
2018-04-18T16:19:33.623Z,8.17
2018-04-18T16:22:02.221Z,7.40
2018-04-18T16:24:31.363Z,7.90
2018-04-18T16:26:59.749Z,7.77
2018-04-18T16:29:43.933Z,7.40
2018-04-18T16:32:12.319Z,7.03
2018-04-18T16:34:41.489Z,6.73
2018-04-18T16:37:09.856Z,8.00
2018-04-18T16:39:38.285Z,6.90
2018-04-18T16:42:07.437Z,6.73
2018-04-18T16:44:35.800Z,6.97
2018-04-18T16:47:04.199Z,7.03
2018-04-18T16:49:32.663Z,7.80
2018-04-18T16:52:01.345Z,8.40
2018-04-18T16:54:29.832Z,8.53
2018-04-18T16:56:58.202Z,8.63
2018-04-18T16:59:26.677Z,8.30
2018-04-18T17:01:55.052Z,9.70
2018-04-18T17:04:23.492Z,8.67
2018-04-18T17:06:52.659Z,10.30
2018-04-18T17:09:21.144Z,9.47
2018-04-18T17:11:49.513Z,7.90
2018-04-18T17:14:17.890Z,8.60
2018-04-18T17:16:46.300Z,7.20
2018-04-18T17:19:15.448Z,8.63
2018-04-18T17:21:43.881Z,8.80
2018-04-18T17:24:13.020Z,8.47
2018-04-18T17:26:41.400Z,8.80
2018-04-18T17:29:09.890Z,8.40
2018-04-18T17:31:38.424Z,7.50
2018-04-18T17:34:08.160Z,9.87
2018-04-18T17:36:36.868Z,8.73
2018-04-18T17:39:06.274Z,9.63
2018-04-18T17:41:35.566Z,10.20
2018-04-18T17:44:03.997Z,10.80
2018-04-18T17:46:33.191Z,11.83
2018-04-18T17:49:02.329Z,9.70
2018-04-18T17:51:30.761Z,8.93
2018-04-18T17:53:59.141Z,10.20
2018-04-18T17:56:28.447Z,9.13
2018-04-18T17:58:57.589Z,10.20
2018-04-18T18:01:25.969Z,10.67
2018-04-18T18:03:54.392Z,10.03
2018-04-18T18:06:23.552Z,9.97
2018-04-18T18:08:51.977Z,11.07
2018-04-18T18:11:21.121Z,10.47
2018-04-18T18:13:49.815Z,11.13
2018-04-18T18:16:18.325Z,12.17
2018-04-18T18:18:46.743Z,11.20
2018-04-18T18:21:15.908Z,9.53
2018-04-18T18:23:44.290Z,10.70
2018-04-18T18:26:13.546Z,11.60
2018-04-18T18:28:45.530Z,10.73
2018-04-18T18:31:14.193Z,11.27
2018-04-18T18:33:42.625Z,12.40
2018-04-18T18:36:11.785Z,13.53
2018-04-18T18:38:40.265Z,12.77
2018-04-18T18:41:08.689Z,11.93
2018-04-18T18:43:37.456Z,13.73
2018-04-18T18:46:06.630Z,15.20
2018-04-18T18:48:35.295Z,13.67
2018-04-18T18:51:03.684Z,12.17
2018-04-18T18:53:32.664Z,13.83
2018-04-18T18:56:02.185Z,14.03
2018-04-18T18:58:30.676Z,13.37
2018-04-18T19:00:59.548Z,16.43
2018-04-18T19:03:27.937Z,16.50
2018-04-18T19:05:56.413Z,13.77
2018-04-18T19:08:24.926Z,14.23
2018-04-18T19:10:53.356Z,14.67
2018-04-18T19:13:21.765Z,14.40
2018-04-18T19:15:50.435Z,14.77
2018-04-18T19:18:19.016Z,13.87
2018-04-18T19:20:48.621Z,13.37
2018-04-18T19:23:17.615Z,14.40
2018-04-18T19:25:46.061Z,13.77
2018-04-18T19:28:14.625Z,14.63
2018-04-18T19:30:43.980Z,15.40
2018-04-18T19:33:12.381Z,13.90
2018-04-18T19:35:43.025Z,13.57
2018-04-18T19:38:12.493Z,16.53
2018-04-18T19:40:41.153Z,16.07
2018-04-18T19:43:09.762Z,15.70
2018-04-18T19:45:39.165Z,14.50
2018-04-18T19:48:07.650Z,14.00
2018-04-18T19:50:36.152Z,15.43
2018-04-18T19:53:04.646Z,15.87
2018-04-18T19:55:33.958Z,14.50
2018-04-18T19:58:03.133Z,13.50
2018-04-18T20:00:31.807Z,15.87
2018-04-18T20:03:00.729Z,15.80
2018-04-18T20:05:30.377Z,16.17
2018-04-18T20:07:59.182Z,14.87
2018-04-18T20:10:28.046Z,14.60
2018-04-18T20:12:56.958Z,15.32
2018-04-18T20:15:25.408Z,13.90
2018-04-18T20:17:53.785Z,13.80
2018-04-18T20:20:22.200Z,14.57
2018-04-18T20:22:50.664Z,15.87
2018-04-18T20:25:19.081Z,15.57
2018-04-18T20:27:47.496Z,14.00
2018-04-18T20:30:16.110Z,15.70
2018-04-18T20:32:44.599Z,15.48
2018-04-18T20:35:13.014Z,17.60
2018-04-18T20:37:42.482Z,17.62
2018-04-18T20:40:10.885Z,16.73
2018-04-18T20:42:39.322Z,17.62
2018-04-18T20:45:07.742Z,16.00
2018-04-18T20:50:17.909Z,17.40
2018-04-18T20:52:46.316Z,15.90
2018-04-18T20:55:15.818Z,17.87
2018-04-18T20:57:44.232Z,16.77
2018-04-18T21:00:12.625Z,16.15
2018-04-18T21:02:41.079Z,15.00
2018-04-18T21:05:09.502Z,15.93
2018-04-18T21:07:38.075Z,19.17
2018-04-18T21:10:06.473Z,15.97
2018-04-18T21:12:35.229Z,16.12
2018-04-18T21:15:03.613Z,16.45
2018-04-18T21:17:32.004Z,17.20
2018-04-18T21:20:00.416Z,16.58
2018-04-18T21:22:30.239Z,17.30
2018-04-18T21:24:59.415Z,17.00
2018-04-18T21:27:27.816Z,15.30
2018-04-18T21:29:57.268Z,15.80
2018-04-18T21:32:26.671Z,15.05
2018-04-18T21:34:55.553Z,17.60
2018-04-18T21:37:23.981Z,15.75
2018-04-18T21:39:53.591Z,17.33
2018-04-18T21:42:22.515Z,17.15
2018-04-18T21:44:50.929Z,17.00
2018-04-18T21:47:20.011Z,17.65
2018-04-18T21:49:55.220Z,17.00
2018-04-18T21:52:25.881Z,17.25
2018-04-18T21:54:55.292Z,17.00
2018-04-18T21:57:28.737Z,17.85
2018-04-18T21:59:57.137Z,18.23
2018-04-18T22:02:25.524Z,17.05
2018-04-18T22:04:53.925Z,17.83
2018-04-18T22:07:22.305Z,17.52
2018-04-18T22:09:50.721Z,17.52
2018-04-18T22:12:19.880Z,18.70
2018-04-18T22:14:48.308Z,17.75
2018-04-18T22:17:16.692Z,17.87
2018-04-18T22:19:45.093Z,16.30
2018-04-18T22:22:13.516Z,18.60
2018-04-18T22:24:41.927Z,18.33
2018-04-18T22:27:11.105Z,20.40
2018-04-18T22:29:40.463Z,19.92
2018-04-18T22:32:09.060Z,17.92
2018-04-18T22:34:37.474Z,18.87
2018-04-18T22:37:06.632Z,18.35
2018-04-18T22:39:35.056Z,18.48
2018-04-18T22:42:04.205Z,18.83
2018-04-18T22:44:32.618Z,18.17
2018-04-18T22:47:01.814Z,18.23
2018-04-18T22:49:31.016Z,20.12
2018-04-18T22:52:00.258Z,18.40
2018-04-18T22:54:28.656Z,20.80
2018-04-18T22:56:57.072Z,18.50
2018-04-18T22:59:26.576Z,20.30
2018-04-18T23:01:55.760Z,19.58
2018-04-18T23:04:24.138Z,22.45
2018-04-18T23:06:52.582Z,20.55
2018-04-18T23:09:20.946Z,18.30
2018-04-18T23:11:49.462Z,20.98
2018-04-18T23:14:19.237Z,19.77
2018-04-18T23:16:47.616Z,18.62
2018-04-18T23:19:16.020Z,18.92
2018-04-18T23:21:44.405Z,20.88
2018-04-18T23:24:13.068Z,20.83
2018-04-18T23:26:41.444Z,20.08
2018-04-18T23:29:09.820Z,20.60
2018-04-18T23:31:39.150Z,22.00
2018-04-18T23:34:07.521Z,20.55
2018-04-18T23:36:35.918Z,21.30
2018-04-18T23:39:04.317Z,18.83
2018-04-18T23:41:33.577Z,21.25
2018-04-18T23:44:01.961Z,21.73
2018-04-18T23:46:30.332Z,20.20
2018-04-18T23:48:58.736Z,19.92
2018-04-18T23:51:27.891Z,21.02
2018-04-18T23:53:56.341Z,22.67
2018-04-18T23:56:25.478Z,22.98
2018-04-18T23:58:53.881Z,20.48
